Welcome to Des Moines Iowa Weather. I am an independent private personal weather station on the Northwest Side of Des Moines, Iowa. Just East of Windsor Heights and just West of Glendale . This site is also mobile friendly.

There are no active watches, warnings or advisories


Visit our other weather sites:

Historical Data

Weather Station Setup



Weather Underground History page Text

Daily Summary for February 21, 2018 Units:  Metric    English   Both
« Previous Day
Next Day »
Daily Weekly Monthly Yearly Custom
  High: Low: Average:
Temperature: -3.7 °C -11.3 °C -7.4 °C
Dew Point: -7.8 °C -13.3 °C -10.5 °C
Humidity: 84 % 70 % 79 %
Wind Speed: 9.7 km/h -1609.1 km/h -14.2 km/h
Wind Gust: 20.9 km/h - -
Wind:- -
Pressure: 1040.2 hPa 1031.4 hPa -
Precipitation: 0 mm    
Historical Graphs
 
 
Tabular Data for February 21, 2018
Time Temperature Dew Point Pressure Wind Wind Speed Wind Gust Humidity Rainfall Rate (Hourly)
00:06 -9.2 °C -11.7 °C 1031.4 hPa North 3.2 km/h 20.9 km/h 83 % 0 mm
00:22 -9.3 °C -11.7 °C 1031.7 hPa North 4.8 km/h 14.5 km/h 83 % 0 mm
00:37 -9.4 °C -11.7 °C 1032.1 hPa North 4.8 km/h 9.7 km/h 83 % 0 mm
00:52 -9.6 °C -12.2 °C 1032.4 hPa North 3.2 km/h 16.1 km/h 83 % 0 mm
01:07 -9.7 °C -12.2 °C 1032.7 hPa North 1.6 km/h 12.9 km/h 83 % 0 mm
01:22 -9.7 °C -12.2 °C 1032.7 hPa North 9.7 km/h 16.1 km/h 83 % 0 mm
01:37 -9.7 °C -12.2 °C 1033.1 hPa North 3.2 km/h 17.7 km/h 83 % 0 mm
01:52 -9.9 °C -12.2 °C 1033.4 hPa North 6.4 km/h 12.9 km/h 83 % 0 mm
02:07 -10.1 °C -12.8 °C 1033.4 hPa North 6.4 km/h 17.7 km/h 82 % 0 mm
02:22 -10.1 °C -12.8 °C 1033.4 hPa North 4.8 km/h 9.7 km/h 82 % 0 mm
02:42 -10.2 °C -12.8 °C 1033.7 hPa North 6.4 km/h 12.9 km/h 83 % 0 mm
02:52 -10.3 °C -12.8 °C 1033.7 hPa North 3.2 km/h 14.5 km/h 82 % 0 mm
03:12 -10.4 °C -12.8 °C 1034.1 hPa North 4.8 km/h 4.8 km/h 82 % 0 mm
03:25 -10.5 °C -12.8 °C 1034.1 hPa North 1.6 km/h 14.5 km/h 83 % 0 mm
03:37 -10.6 °C -12.8 °C 1034.4 hPa North 1.6 km/h 8 km/h 83 % 0 mm
03:52 -10.7 °C -12.8 °C 1034.4 hPa North 4.8 km/h 4.8 km/h 83 % 0 mm
04:07 -10.7 °C -12.8 °C 1035.1 hPa North 1.6 km/h 6.4 km/h 84 % 0 mm
04:22 -10.8 °C -12.8 °C 1035.1 hPa North 1.6 km/h 4.8 km/h 84 % 0 mm
04:37 -10.9 °C -12.8 °C 1035.8 hPa North 1.6 km/h 4.8 km/h 84 % 0 mm
04:52 -10.9 °C -13.3 °C 1035.8 hPa North 3.2 km/h 6.4 km/h 84 % 0 mm
05:07 -11 °C -13.3 °C 1035.8 hPa Calm   8 km/h 84 % 0 mm
05:22 -11.1 °C -13.3 °C 1036.1 hPa Calm   14.5 km/h 84 % 0 mm
05:37 -11.1 °C -13.3 °C 1036.1 hPa North 3.2 km/h 12.9 km/h 83 % 0 mm
05:52 -11.2 °C -13.3 °C 1036.5 hPa North 4.8 km/h 8 km/h 83 % 0 mm
06:07 -11.2 °C -13.3 °C 1036.8 hPa North 1.6 km/h 4.8 km/h 83 % 0 mm
06:22 -11.2 °C -13.3 °C 1037.5 hPa Calm   1.6 km/h 83 % 0 mm
06:37 -11.2 °C -13.3 °C 1037.8 hPa Calm   3.2 km/h 84 % 0 mm
06:52 -11.2 °C -13.3 °C 1037.8 hPa Calm   4.8 km/h 84 % 0 mm
07:07 -11.3 °C -13.3 °C 1037.8 hPa Calm   4.8 km/h 84 % 0 mm
07:22 -11.3 °C -13.3 °C 1038.1 hPa North 3.2 km/h 8 km/h 84 % 0 mm
07:38 -11.3 °C -13.3 °C 1038.8 hPa Calm   4.8 km/h 84 % 0 mm
07:53 -11.1 °C -13.3 °C 1038.8 hPa Calm   3.2 km/h 84 % 0 mm
08:08 -11 °C -13.3 °C 1039.2 hPa Calm   4.8 km/h 83 % 0 mm
08:23 -10.9 °C -13.3 °C 1038.8 hPa North 3.2 km/h 8 km/h 82 % 0 mm
08:38 -10.8 °C -13.3 °C 1039.2 hPa North 1.6 km/h 6.4 km/h 82 % 0 mm
08:53 -10.6 °C -13.3 °C 1039.5 hPa North 1.6 km/h 6.4 km/h 82 % 0 mm
09:08 -10.3 °C -12.8 °C 1039.5 hPa Calm   6.4 km/h 82 % 0 mm
09:23 -10 °C -12.8 °C 1039.8 hPa North 3.2 km/h 6.4 km/h 81 % 0 mm
09:38 -9.7 °C -12.2 °C 1039.8 hPa Calm   6.4 km/h 80 % 0 mm
09:53 -9.3 °C -12.2 °C 1039.8 hPa Calm   6.4 km/h 80 % 0 mm
10:08 -8.9 °C -11.7 °C 1039.8 hPa North 3.2 km/h 6.4 km/h 79 % 0 mm
10:23 -8.6 °C -11.7 °C 1039.8 hPa North 4.8 km/h 6.4 km/h 78 % 0 mm
10:38 -8 °C -11.7 °C 1039.8 hPa North 6.4 km/h 9.7 km/h 76 % 0 mm
10:53 -7.9 °C -11.7 °C 1039.8 hPa North 3.2 km/h 9.7 km/h 75 % 0 mm
11:08 -7.5 °C -11.1 °C 1039.8 hPa North 1.6 km/h 12.9 km/h 76 % 0 mm
11:23 -7.2 °C -11.1 °C 1040.2 hPa North 3.2 km/h 8 km/h 75 % 0 mm
11:38 -6.9 °C -11.1 °C 1039.8 hPa North 3.2 km/h 14.5 km/h 74 % 0 mm
11:53 -6.8 °C -10.6 °C 1039.8 hPa North 6.4 km/h 9.7 km/h 75 % 0 mm
12:08 -6.6 °C -10.6 °C 1039.8 hPa North 4.8 km/h 9.7 km/h 75 % 0 mm
12:23 -6.1 °C -10 °C 1039.5 hPa Calm   8 km/h 75 % 0 mm
12:38 -5.7 °C -9.4 °C 1039.5 hPa North 4.8 km/h 9.7 km/h 76 % 0 mm
12:53 -5.4 °C -9.4 °C 1039.8 hPa North 4.8 km/h 8 km/h 74 % 0 mm
13:08 -5.7 °C -10 °C 1039.5 hPa North 4.8 km/h 12.9 km/h 72 % 0 mm
13:23 -5.3 °C -9.4 °C 1039.5 hPa North 4.8 km/h 9.7 km/h 74 % 0 mm
13:38 -5.1 °C -9.4 °C 1039.2 hPa North 1.6 km/h 12.9 km/h 72 % 0 mm
13:53 -4.7 °C -8.3 °C 1038.8 hPa North 9.7 km/h 9.7 km/h 75 % 0 mm
14:09 -4.6 °C -8.3 °C 1038.5 hPa NNE 1.6 km/h 14.5 km/h 75 % 0 mm
14:28 -4.5 °C -8.9 °C 1038.5 hPa Calm   9.7 km/h 72 % 0 mm
14:39 -4.4 °C -8.3 °C 1038.1 hPa North 3.2 km/h 12.9 km/h 73 % 0 mm
14:57 -4.2 °C -8.3 °C 1038.1 hPa Calm   8 km/h 72 % 0 mm
15:10 -4.4 °C -8.9 °C 1038.1 hPa North -1609.1 km/h -1607.7 km/h 71 % 0 mm
15:24 -4.2 °C -8.9 °C 1038.1 hPa North 1.6 km/h 9.7 km/h 70 % 0 mm
15:46 -3.9 °C -8.3 °C 1038.1 hPa Calm   12.9 km/h 71 % 0 mm
15:54 -3.7 °C -8.3 °C 1038.1 hPa ENE 6.4 km/h 8 km/h 71 % 0 mm
16:09 -3.8 °C -8.3 °C 1037.8 hPa ENE 6.4 km/h 11.3 km/h 70 % 0 mm
16:24 -3.8 °C -8.3 °C 1038.1 hPa ENE 3.2 km/h 9.7 km/h 72 % 0 mm
16:39 -3.8 °C -8.3 °C 1038.5 hPa NNE 4.8 km/h 12.9 km/h 72 % 0 mm
16:54 -4.1 °C -8.3 °C 1038.5 hPa NNE 3.2 km/h 11.3 km/h 72 % 0 mm
17:09 -4.2 °C -8.3 °C 1038.5 hPa NE 1.6 km/h 9.7 km/h 73 % 0 mm
17:24 -4.3 °C -8.3 °C 1038.5 hPa NE 1.6 km/h 4.8 km/h 74 % 0 mm
17:39 -4.4 °C -8.3 °C 1038.5 hPa Calm   6.4 km/h 75 % 0 mm
17:54 -4.5 °C -8.3 °C 1038.5 hPa NE 3.2 km/h 6.4 km/h 76 % 0 mm
18:09 -4.6 °C -7.8 °C 1038.1 hPa Calm   8 km/h 77 % 0 mm
18:24 -4.7 °C -8.3 °C 1038.1 hPa ENE 1.6 km/h 8 km/h 77 % 0 mm
18:39 -4.7 °C -7.8 °C 1038.1 hPa NE 1.6 km/h 4.8 km/h 78 % 0 mm
18:54 -4.8 °C -7.8 °C 1038.1 hPa Calm   4.8 km/h 78 % 0 mm
19:09 -4.8 °C -7.8 °C 1038.1 hPa NE 4.8 km/h 8 km/h 79 % 0 mm
19:24 -4.9 °C -8.3 °C 1037.8 hPa NE 3.2 km/h 6.4 km/h 78 % 0 mm
19:39 -4.8 °C -8.3 °C 1037.5 hPa NE 3.2 km/h 6.4 km/h 78 % 0 mm
19:54 -4.8 °C -7.8 °C 1037.8 hPa Calm   8 km/h 79 % 0 mm
20:09 -4.9 °C -7.8 °C 1037.8 hPa East 4.8 km/h 9.7 km/h 79 % 0 mm
20:24 -4.9 °C -7.8 °C 1037.8 hPa NNE 3.2 km/h 4.8 km/h 79 % 0 mm
20:39 -4.8 °C -7.8 °C 1037.8 hPa Calm   9.7 km/h 79 % 0 mm
20:54 -4.8 °C -7.8 °C 1037.8 hPa Calm   6.4 km/h 79 % 0 mm
21:09 -4.8 °C -7.8 °C 1037.8 hPa ENE 4.8 km/h 8 km/h 80 % 0 mm
21:24 -4.8 °C -7.8 °C 1037.5 hPa NNE 3.2 km/h 9.7 km/h 79 % 0 mm
21:39 -4.8 °C -7.8 °C 1037.5 hPa Calm   12.9 km/h 79 % 0 mm
21:54 -4.8 °C -8.3 °C 1037.5 hPa Calm   11.3 km/h 78 % 0 mm
22:09 -4.8 °C -8.3 °C 1037.1 hPa Calm   8 km/h 78 % 0 mm
22:24 -4.8 °C -8.3 °C 1037.1 hPa Calm   11.3 km/h 78 % 0 mm
22:39 -4.8 °C -8.3 °C 1036.8 hPa ENE 4.8 km/h 12.9 km/h 78 % 0 mm
22:54 -4.8 °C -8.3 °C 1036.5 hPa East 1.6 km/h 8 km/h 78 % 0 mm
23:09 -4.8 °C -8.3 °C 1036.1 hPa ENE 6.4 km/h 11.3 km/h 78 % 0 mm
23:24 -4.8 °C -8.3 °C 1036.1 hPa Calm   12.9 km/h 78 % 0 mm
23:39 -4.8 °C -8.3 °C 1035.4 hPa NE 3.2 km/h 14.5 km/h 78 % 0 mm
23:54 -4.8 °C -7.8 °C 1035.8 hPa ENE 3.2 km/h 11.3 km/h 78 % 0 mm
Des Moines Weather and Climate
Compliments of Weather Underground - 3 mb

Script developed by  Jim McMurry - jmcmurry@mwt.net Adapted for the template by  Wim van der Kuil - Leuven-Template.eu

You find our weather info also at:

Weather Underground

Equipment we use:

Weather-station
Davis VP2 Plus

Weather-program
Davis Weatherlink.Com

Weather-server
iMac (Retina 4K, 21.5-inch, Late 2015)

Provider
Hostmonster.com

Davis VP2 Plus

Davis Weatherlink.Com

iMac (Retina 4K, 21.5-inch, Late 2015)

Hostmonster.com